Time;durP1;ratioP1;P1;durP2;ratioP2;P2;SDS_P1;SDS_P2;PMS_P1;PMS_P2;Temp;Humidity;BMP_temperature;BMP_pressure;BME280_temperature;BME280_humidity;BME280_pressure;Samples;Min_cycle;Max_cycle;Signal;HPM_P1;HPM_P2
2022/01/07 00:01:03;;;;;;;6.23;2.53;;;;;;;-0.78;68.22;95850.03;1794401;80;21009;-65
2022/01/07 00:03:34;;;;;;;5.07;2.33;;;;;;;-0.79;67.81;95858.22;1796298;80;20985;-65
2022/01/07 00:06:03;;;;;;;3.97;2.13;;;;;;;-0.79;67.53;95860.81;1795399;80;21483;-66
2022/01/07 00:08:30;;;;;;;3.20;1.90;;;;;;;-0.81;67.78;95864.20;1796361;80;21017;-65
2022/01/07 00:10:57;;;;;;;4.90;1.97;;;;;;;-0.80;67.93;95860.37;1796316;79;21526;-66
2022/01/07 00:13:25;;;;;;;2.93;1.73;;;;;;;-0.76;67.26;95859.60;1796217;80;20973;-65
2022/01/07 00:15:54;;;;;;;2.00;1.67;;;;;;;-0.82;65.14;95865.91;1796301;79;21080;-66
2022/01/07 00:18:23;;;;;;;2.70;1.47;;;;;;;-0.81;64.23;95874.56;1796200;80;21060;-65
2022/01/07 00:20:52;;;;;;;2.23;1.57;;;;;;;-0.83;65.01;95874.53;1796159;80;20996;-65
2022/01/07 00:23:21;;;;;;;3.57;1.53;;;;;;;-0.75;64.70;95877.34;1796335;79;21013;-68
2022/01/07 00:25:49;;;;;;;4.70;1.63;;;;;;;-0.74;63.62;95881.26;1795892;80;21005;-65
2022/01/07 00:28:18;;;;;;;2.53;1.10;;;;;;;-0.74;62.60;95885.57;1796161;80;21100;-65
2022/01/07 00:30:44;;;;;;;3.30;1.40;;;;;;;-0.76;61.24;95882.92;1796269;80;20965;-66
2022/01/07 00:33:11;;;;;;;2.53;1.70;;;;;;;-0.77;60.70;95888.08;1796423;80;21017;-65
2022/01/07 00:35:39;;;;;;;3.57;1.40;;;;;;;-0.74;61.90;95897.23;1796359;80;21001;-65
2022/01/07 00:38:06;;;;;;;3.77;1.30;;;;;;;-0.75;62.10;95900.24;1796199;80;21076;-65
2022/01/07 00:40:38;;;;;;;2.60;1.13;;;;;;;-0.71;61.41;95906.38;1796073;79;21057;-65
2022/01/07 00:43:05;;;;;;;2.97;1.20;;;;;;;-0.74;58.80;95912.35;1796204;80;21462;-65
2022/01/07 00:45:33;;;;;;;2.50;1.07;;;;;;;-0.71;60.87;95909.84;1796031;79;21013;-65
2022/01/07 00:47:59;;;;;;;2.63;1.50;;;;;;;-0.69;60.72;95912.07;1796302;80;21470;-66
2022/01/07 00:50:29;;;;;;;2.90;1.47;;;;;;;-0.68;61.02;95913.84;1796020;79;21080;-65
2022/01/07 00:52:57;;;;;;;5.03;1.30;;;;;;;-0.66;59.78;95917.37;1796434;79;21005;-66
2022/01/07 00:55:26;;;;;;;2.33;1.30;;;;;;;-0.66;60.65;95923.84;1796569;80;20969;-66
2022/01/07 00:57:53;;;;;;;3.43;1.57;;;;;;;-0.68;60.25;95921.63;1795991;80;21000;-65
2022/01/07 01:00:24;;;;;;;2.10;1.50;;;;;;;-0.69;61.17;95923.73;1792407;78;21491;-66
2022/01/07 01:02:52;;;;;;;2.00;1.40;;;;;;;-0.70;60.30;95925.88;1787653;80;20978;-66
2022/01/07 01:05:21;;;;;;;2.67;1.23;;;;;;;-0.73;60.08;95937.84;1787674;80;20981;-66
2022/01/07 01:07:48;;;;;;;2.23;0.90;;;;;;;-0.73;60.35;95935.25;1787831;80;21010;-66
2022/01/07 01:10:19;;;;;;;3.07;1.43;;;;;;;-0.78;57.70;95934.23;1787764;80;21013;-66
2022/01/07 01:12:48;;;;;;;2.43;1.40;;;;;;;-0.84;58.33;95943.12;1787445;80;21553;-66
2022/01/07 01:15:24;;;;;;;3.87;1.60;;;;;;;-0.89;60.00;95945.15;1787690;80;20978;-66
2022/01/07 01:17:49;;;;;;;1.80;1.05;;;;;;;-0.94;59.55;95947.14;1786687;80;21349;-66
2022/01/07 01:20:16;;;;;;;1.17;0.90;;;;;;;-0.96;60.01;95947.50;1787662;80;21444;-66
2022/01/07 01:22:44;;;;;;;1.77;1.20;;;;;;;-1.02;59.56;95950.78;1787330;80;21017;-66
2022/01/07 01:25:12;;;;;;;3.40;1.40;;;;;;;-1.05;59.77;95953.28;1787650;80;21353;-66
2022/01/07 01:27:40;;;;;;;3.13;1.43;;;;;;;-1.03;60.78;95951.63;1751581;80;21065;-66
2022/01/07 01:30:10;;;;;;;3.73;1.40;;;;;;;-1.04;59.57;95958.05;1787704;80;21032;-67
2022/01/07 01:32:38;;;;;;;3.03;1.50;;;;;;;-1.13;58.21;95958.64;1787628;80;21073;-66
2022/01/07 01:35:08;;;;;;;3.73;1.60;;;;;;;-1.28;58.57;95965.50;1787775;80;20965;-66
2022/01/07 01:37:35;;;;;;;1.50;0.60;;;;;;;-1.31;58.81;95965.41;1787626;80;21523;-66
2022/01/07 01:40:04;;;;;;;5.33;1.87;;;;;;;-1.32;58.21;95969.67;1787437;80;21519;-67
2022/01/07 01:42:31;;;;;;;1.60;0.97;;;;;;;-1.40;58.53;95967.26;1787498;80;21057;-66
2022/01/07 01:44:57;;;;;;;2.13;1.10;;;;;;;-1.40;58.61;95972.44;1787820;80;20946;-66
2022/01/07 01:47:26;;;;;;;2.03;1.30;;;;;;;-1.42;59.36;95969.33;1787701;80;21088;-66
2022/01/07 01:49:52;;;;;;;2.50;1.47;;;;;;;-1.43;59.68;95981.82;1787743;80;20982;-66
2022/01/07 01:52:21;;;;;;;3.73;1.43;;;;;;;-1.44;59.80;95979.62;1752391;80;21040;-66
2022/01/07 01:54:47;;;;;;;3.10;1.67;;;;;;;-1.51;59.60;95981.56;1787769;80;21025;-66
2022/01/07 01:57:14;;;;;;;2.87;0.97;;;;;;;-1.50;59.60;95979.84;1787473;80;21002;-66
2022/01/07 01:59:43;;;;;;;2.77;1.40;;;;;;;-1.54;59.59;95980.14;1787487;80;21566;-67
2022/01/07 02:02:10;;;;;;;1.73;1.10;;;;;;;-1.56;60.34;95993.05;1787369;80;21014;-66
2022/01/07 02:04:39;;;;;;;3.23;1.40;;;;;;;-1.51;59.77;95999.67;1787661;80;21480;-66
2022/01/07 02:07:08;;;;;;;1.93;1.10;;;;;;;-1.57;60.14;96000.32;1787674;80;20978;-66
2022/01/07 02:09:38;;;;;;;2.37;1.20;;;;;;;-1.61;59.70;95999.77;1787780;80;20998;-66
2022/01/07 02:12:09;;;;;;;3.83;1.20;;;;;;;-1.66;60.28;96008.17;1787523;80;21016;-66
2022/01/07 02:14:36;;;;;;;3.77;1.20;;;;;;;-1.76;59.95;96013.05;1787432;80;21017;-66
2022/01/07 02:17:10;;;;;;;2.40;1.10;;;;;;;-1.77;60.06;96011.27;1787864;80;20997;-66
2022/01/07 02:19:39;;;;;;;2.53;1.37;;;;;;;-1.83;60.32;96017.95;1787340;80;21057;-67
2022/01/07 02:22:06;;;;;;;1.47;0.90;;;;;;;-1.89;60.97;96014.74;1787467;80;21038;-66
2022/01/07 02:24:35;;;;;;;7.63;1.40;;;;;;;-1.98;61.27;96014.40;1787525;80;21045;-66
2022/01/07 02:27:03;;;;;;;3.77;0.90;;;;;;;-2.01;61.05;96020.77;1787483;80;21005;-66
2022/01/07 02:29:29;;;;;;;2.20;1.33;;;;;;;-2.07;61.16;96020.52;1787402;80;21026;-66
2022/01/07 02:31:56;;;;;;;1.90;0.80;;;;;;;-2.14;61.42;96023.70;1787748;80;21033;-66
2022/01/07 02:34:23;;;;;;;3.03;1.30;;;;;;;-2.20;60.62;96024.36;1787587;80;20974;-66
2022/01/07 02:36:50;;;;;;;4.67;1.33;;;;;;;-2.28;61.45;96024.08;1787593;80;20981;-66
2022/01/07 02:39:17;;;;;;;2.17;1.10;;;;;;;-2.27;62.25;96019.78;1787478;80;21044;-66
2022/01/07 02:41:45;;;;;;;3.17;1.20;;;;;;;-2.27;61.46;96023.27;1787981;80;20958;-67
2022/01/07 02:44:12;;;;;;;2.03;1.07;;;;;;;-2.32;61.92;96024.77;1787740;80;21100;-66
2022/01/07 02:46:39;;;;;;;2.27;1.20;;;;;;;-2.34;61.34;96021.28;1787880;80;21510;-66
2022/01/07 02:49:15;;;;;;;2.43;1.10;;;;;;;-2.35;62.15;96020.78;1787611;80;21029;-66
2022/01/07 02:51:43;;;;;;;1.60;1.10;;;;;;;-2.42;61.99;96019.70;1787796;80;20989;-66
2022/01/07 02:54:11;;;;;;;2.77;1.20;;;;;;;-2.49;62.21;96019.41;1788211;80;20989;-66
2022/01/07 02:56:38;;;;;;;3.20;1.37;;;;;;;-2.46;62.74;96027.27;1787841;80;20981;-66
2022/01/07 02:59:08;;;;;;;4.13;1.30;;;;;;;-2.54;62.04;96023.10;1787569;80;21503;-66
2022/01/07 03:01:39;;;;;;;3.17;0.90;;;;;;;-2.59;62.53;96027.63;1787853;80;21033;-66
2022/01/07 03:04:07;;;;;;;2.87;1.23;;;;;;;-2.64;62.17;96034.78;1787775;80;21017;-66
2022/01/07 03:06:35;;;;;;;1.00;0.70;;;;;;;-2.71;62.30;96034.48;1787808;80;21012;-66
2022/01/07 03:09:04;;;;;;;2.37;1.10;;;;;;;-2.77;62.27;96034.22;1787458;80;21037;-66
2022/01/07 03:11:31;;;;;;;2.90;1.00;;;;;;;-2.82;62.76;96036.65;1787590;80;21010;-66
2022/01/07 03:13:59;;;;;;;3.07;1.47;;;;;;;-2.95;62.26;96036.58;1787505;80;20958;-66
2022/01/07 03:16:28;;;;;;;6.10;1.20;;;;;;;-2.91;63.46;96038.86;1787459;80;20993;-66
2022/01/07 03:18:58;;;;;;;2.87;1.33;;;;;;;-2.94;64.00;96039.61;1787180;80;21594;-66
2022/01/07 03:21:24;;;;;;;2.10;0.90;;;;;;;-2.99;63.14;96042.42;1787875;80;20978;-66
2022/01/07 03:23:51;;;;;;;2.10;1.30;;;;;;;-3.01;63.45;96040.59;1787364;80;21009;-66
2022/01/07 03:26:18;;;;;;;2.63;1.17;;;;;;;-3.00;63.82;96044.52;1787730;80;20981;-66
2022/01/07 03:28:46;;;;;;;2.77;1.20;;;;;;;-3.00;63.47;96048.80;1787357;80;21025;-66
2022/01/07 03:31:16;;;;;;;1.93;0.77;;;;;;;-3.02;63.13;96048.76;1787672;80;21025;-66
2022/01/07 03:33:45;;;;;;;1.80;1.00;;;;;;;-3.08;62.91;96053.66;1787057;80;21041;-66
2022/01/07 03:36:12;;;;;;;1.80;0.77;;;;;;;-3.13;63.06;96053.87;1787741;80;20978;-66
2022/01/07 03:38:41;;;;;;;3.00;1.30;;;;;;;-3.23;62.94;96059.48;1787130;80;21012;-66
2022/01/07 03:41:07;;;;;;;3.00;0.70;;;;;;;-3.28;63.25;96063.16;1787946;80;21030;-66
2022/01/07 03:43:36;;;;;;;2.17;0.90;;;;;;;-3.30;63.36;96056.66;1787745;80;21053;-65
2022/01/07 03:46:03;;;;;;;1.90;1.10;;;;;;;-3.31;63.49;96059.16;1787857;80;21427;-66
2022/01/07 03:48:30;;;;;;;1.80;1.17;;;;;;;-3.34;63.18;96059.04;1787558;80;21041;-65
2022/01/07 03:50:56;;;;;;;1.13;0.60;;;;;;;-3.40;63.44;96071.66;1788063;80;20992;-65
2022/01/07 03:53:25;;;;;;;2.73;1.00;;;;;;;-3.43;63.73;96067.67;1787644;80;21034;-65
2022/01/07 03:55:53;;;;;;;5.90;1.10;;;;;;;-3.46;63.84;96073.58;1787711;80;20974;-65
2022/01/07 03:58:20;;;;;;;2.10;1.40;;;;;;;-3.44;63.62;96073.66;1787650;80;21014;-65
2022/01/07 04:00:47;;;;;;;1.50;0.97;;;;;;;-3.42;64.44;96080.65;1789744;80;20997;-65
2022/01/07 04:03:21;;;;;;;3.03;1.33;;;;;;;-3.43;63.69;96077.98;1796384;80;21036;-65
2022/01/07 04:05:48;;;;;;;2.27;1.07;;;;;;;-3.47;64.42;96084.73;1796169;80;21009;-65
2022/01/07 04:08:18;;;;;;;3.13;1.10;;;;;;;-3.47;65.55;96079.57;1795913;79;21507;-65
2022/01/07 04:10:49;;;;;;;1.27;0.80;;;;;;;-3.47;64.64;96086.02;1796450;79;21597;-65
2022/01/07 04:13:16;;;;;;;3.33;0.93;;;;;;;-3.43;64.95;96083.15;1796185;80;21025;-66
2022/01/07 04:15:42;;;;;;;1.77;1.00;;;;;;;-3.45;64.46;96084.39;1796589;79;21013;-65
2022/01/07 04:18:08;;;;;;;1.73;0.70;;;;;;;-3.51;64.14;96091.44;1796439;80;21001;-65
2022/01/07 04:20:36;;;;;;;3.50;1.13;;;;;;;-3.55;64.07;96091.27;1796222;80;21001;-65
2022/01/07 04:23:06;;;;;;;2.20;1.13;;;;;;;-3.58;64.20;96094.98;1796159;80;21002;-65
2022/01/07 04:25:34;;;;;;;2.40;1.20;;;;;;;-3.57;65.27;96097.63;1796398;80;21032;-65
2022/01/07 04:28:05;;;;;;;3.37;1.30;;;;;;;-3.56;65.16;96096.80;1796123;80;21009;-65
2022/01/07 04:30:39;;;;;;;3.47;1.30;;;;;;;-3.51;65.83;96096.59;1795868;80;21025;-65
2022/01/07 04:33:10;;;;;;;1.97;1.20;;;;;;;-3.39;65.59;96100.13;1796551;80;21518;-65
2022/01/07 04:35:37;;;;;;;2.80;1.17;;;;;;;-3.34;65.93;96106.36;1796092;79;21044;-65
2022/01/07 04:38:06;;;;;;;2.10;1.30;;;;;;;-3.30;65.62;96103.48;1796384;79;21004;-65
2022/01/07 04:40:35;;;;;;;2.77;1.23;;;;;;;-3.31;65.82;96106.48;1796358;79;21499;-65
2022/01/07 04:43:04;;;;;;;3.73;1.37;;;;;;;-3.30;64.44;96112.52;1796349;79;20957;-65
2022/01/07 04:45:31;;;;;;;1.77;1.20;;;;;;;-3.34;64.64;96111.52;1796126;80;21055;-65
2022/01/07 04:47:58;;;;;;;3.30;1.50;;;;;;;-3.34;65.05;96115.80;1796288;80;20977;-69
2022/01/07 04:50:25;;;;;;;4.67;1.40;;;;;;;-3.33;64.90;96113.69;1796480;79;20993;-65
2022/01/07 04:52:54;;;;;;;3.13;1.10;;;;;;;-3.42;65.07;96110.73;1796403;79;21459;-65
2022/01/07 04:55:29;;;;;;;1.93;1.20;;;;;;;-3.42;65.46;96115.89;1795930;80;21016;-65
2022/01/07 04:57:56;;;;;;;1.60;1.07;;;;;;;-3.50;66.86;96122.01;1796347;80;21036;-65
2022/01/07 05:00:24;;;;;;;4.70;1.43;;;;;;;-3.73;68.53;96116.72;1795823;79;21064;-65
2022/01/07 05:02:51;;;;;;;3.40;1.10;;;;;;;-3.76;67.71;96111.41;1786965;80;21013;-65
2022/01/07 05:05:19;;;;;;;2.27;1.23;;;;;;;-3.75;67.08;96120.05;1787718;80;21073;-65
2022/01/07 05:07:45;;;;;;;3.53;1.50;;;;;;;-3.73;67.33;96119.69;1787614;80;21006;-65
2022/01/07 05:10:14;;;;;;;6.57;1.77;;;;;;;-3.78;67.36;96123.75;1787212;80;21523;-65
2022/01/07 05:12:42;;;;;;;2.87;1.30;;;;;;;-3.72;67.69;96125.34;1787742;80;21037;-65
2022/01/07 05:15:13;;;;;;;1.90;1.00;;;;;;;-3.67;67.22;96120.38;1787605;80;20998;-65
2022/01/07 05:17:43;;;;;;;3.97;1.30;;;;;;;-3.73;66.92;96124.46;1787628;80;21109;-65
2022/01/07 05:20:15;;;;;;;2.87;1.17;;;;;;;-3.80;67.10;96125.41;1787747;80;21093;-65
2022/01/07 05:22:43;;;;;;;3.00;1.37;;;;;;;-3.84;67.18;96121.80;1786709;80;21001;-65
2022/01/07 05:25:12;;;;;;;3.27;1.20;;;;;;;-3.90;67.07;96127.10;1787126;80;21017;-65
2022/01/07 05:27:39;;;;;;;2.40;0.93;;;;;;;-3.93;67.06;96131.71;1787623;80;21044;-65
2022/01/07 05:30:09;;;;;;;2.73;1.20;;;;;;;-4.03;69.57;96131.69;1787576;80;20993;-66
2022/01/07 05:32:36;;;;;;;4.20;1.60;;;;;;;-4.16;69.76;96138.36;1787638;80;21009;-65
2022/01/07 05:35:04;;;;;;;1.90;1.20;;;;;;;-4.26;70.16;96147.77;1787922;80;21033;-65
2022/01/07 05:37:31;;;;;;;3.13;1.50;;;;;;;-4.40;70.47;96136.42;1787595;80;20974;-65
2022/01/07 05:39:58;;;;;;;5.07;1.27;;;;;;;-4.31;70.15;96142.39;1787876;80;21006;-65
2022/01/07 05:42:25;;;;;;;2.37;1.10;;;;;;;-4.22;70.49;96140.67;1787637;80;20990;-65
2022/01/07 05:44:52;;;;;;;4.43;1.20;;;;;;;-4.21;69.48;96143.33;1787401;80;20993;-65
2022/01/07 05:47:19;;;;;;;1.63;0.90;;;;;;;-4.28;69.51;96148.09;1787568;80;21009;-65
2022/01/07 05:49:45;;;;;;;2.83;1.10;;;;;;;-4.29;69.35;96144.64;1787694;80;20958;-65
2022/01/07 05:52:12;;;;;;;1.63;1.00;;;;;;;-4.20;69.74;96149.36;1787828;80;20958;-65
2022/01/07 05:54:38;;;;;;;3.70;0.93;;;;;;;-4.24;69.73;96153.47;1787675;80;21443;-65
2022/01/07 05:57:06;;;;;;;4.93;1.10;;;;;;;-4.20;69.82;96153.22;1787542;80;21041;-65
2022/01/07 05:59:33;;;;;;;2.80;1.00;;;;;;;-4.22;69.23;96149.27;1787414;80;21487;-65
2022/01/07 06:02:00;;;;;;;5.03;2.10;;;;;;;-4.21;69.30;96153.64;1792292;80;21009;-65
2022/01/07 06:04:26;;;;;;;2.20;1.17;;;;;;;-4.22;69.30;96150.56;1796367;79;21479;-65
2022/01/07 06:06:55;;;;;;;2.77;1.30;;;;;;;-4.20;68.89;96151.94;1795790;79;21049;-65
2022/01/07 06:09:21;;;;;;;2.70;1.23;;;;;;;-4.39;68.45;96155.33;1795950;80;21022;-65
2022/01/07 06:11:48;;;;;;;4.63;1.40;;;;;;;-4.61;69.78;96166.28;1796395;80;21077;-65
2022/01/07 06:14:14;;;;;;;2.43;1.03;;;;;;;-4.71;70.44;96168.84;1795838;79;20993;-65
2022/01/07 06:16:41;;;;;;;2.30;1.40;;;;;;;-4.82;70.06;96169.58;1765103;80;21045;-65
2022/01/07 06:19:07;;;;;;;5.60;2.27;;;;;;;-4.91;70.55;96179.86;1796297;79;21001;-65
2022/01/07 06:21:34;;;;;;;5.47;2.80;;;;;;;-4.88;70.34;96176.14;1796405;80;20988;-65
2022/01/07 06:24:01;;;;;;;6.70;3.37;;;;;;;-4.86;70.28;96182.25;1795919;79;21061;-65
2022/01/07 06:26:27;;;;;;;4.77;1.60;;;;;;;-4.79;70.34;96178.77;1796112;79;20965;-65
2022/01/07 06:28:54;;;;;;;2.37;1.40;;;;;;;-4.69;70.22;96185.63;1796335;80;21519;-65
2022/01/07 06:31:20;;;;;;;2.07;1.10;;;;;;;-4.57;70.37;96178.09;1796073;80;20993;-65
2022/01/07 06:33:47;;;;;;;1.57;0.73;;;;;;;-4.63;69.40;96180.80;1795791;80;21032;-65
2022/01/07 06:36:13;;;;;;;4.33;1.37;;;;;;;-4.75;69.08;96182.36;1796310;79;20997;-65
2022/01/07 06:38:42;;;;;;;2.47;1.20;;;;;;;-4.86;68.69;96176.70;1795940;80;21075;-65
2022/01/07 06:41:08;;;;;;;2.63;1.10;;;;;;;-4.93;69.06;96182.75;1795952;80;21005;-65
2022/01/07 06:43:35;;;;;;;2.73;1.13;;;;;;;-4.87;70.20;96180.05;1796027;80;21021;-65
2022/01/07 06:46:01;;;;;;;4.27;1.87;;;;;;;-4.90;71.41;96180.32;1796245;79;21530;-65
2022/01/07 06:48:30;;;;;;;6.80;2.00;;;;;;;-4.94;72.17;96189.97;1795767;79;21550;-65
2022/01/07 06:50:56;;;;;;;1.77;0.97;;;;;;;-4.92;71.99;96175.49;1796267;80;21045;-65
2022/01/07 06:53:23;;;;;;;1.77;1.20;;;;;;;-4.83;71.95;96183.27;1796231;79;21037;-65
2022/01/07 06:55:49;;;;;;;3.23;1.80;;;;;;;-4.71;71.59;96183.00;1796250;80;20974;-65
2022/01/07 06:58:16;;;;;;;5.33;2.60;;;;;;;-4.72;71.01;96174.78;1796413;79;21024;-65
2022/01/07 07:00:42;;;;;;;11.03;5.17;;;;;;;-4.87;72.80;96174.03;1796426;80;21007;-65
2022/01/07 07:03:09;;;;;;;9.27;4.47;;;;;;;-4.82;72.77;96182.45;1788084;79;21068;-65
2022/01/07 07:05:35;;;;;;;14.30;6.43;;;;;;;-4.71;73.44;96184.29;1787837;80;20977;-65
2022/01/07 07:08:04;;;;;;;3.53;1.37;;;;;;;-4.67;72.93;96186.19;1787478;80;21013;-65
2022/01/07 07:10:36;;;;;;;9.03;3.20;;;;;;;-4.60;72.25;96179.25;1787737;80;21439;-65
2022/01/07 07:13:05;;;;;;;7.70;4.20;;;;;;;-4.60;71.76;96187.38;1787460;80;21519;-65
2022/01/07 07:15:32;;;;;;;5.93;3.20;;;;;;;-4.56;72.19;96176.44;1787640;80;20986;-65
2022/01/07 07:17:59;;;;;;;9.50;4.77;;;;;;;-4.46;72.75;96183.79;1787711;80;21040;-65
2022/01/07 07:20:26;;;;;;;9.20;5.60;;;;;;;-4.42;72.60;96179.66;1787659;80;21037;-65
2022/01/07 07:22:52;;;;;;;12.67;6.27;;;;;;;-4.43;72.49;96180.07;1787779;80;21032;-65
2022/01/07 07:25:22;;;;;;;7.73;4.50;;;;;;;-4.30;73.06;96169.94;1787418;80;21021;-65
2022/01/07 07:27:47;;;;;;;5.90;3.23;;;;;;;-4.15;71.86;96162.05;1787482;80;21089;-65
2022/01/07 07:30:14;;;;;;;28.33;14.80;;;;;;;-4.02;70.50;96164.79;1787422;80;20974;-65
2022/01/07 07:32:40;;;;;;;15.07;7.43;;;;;;;-3.89;70.17;96163.24;1787833;80;21069;-65
2022/01/07 07:37:39;;;;;;;11.60;6.83;;;;;;;-3.73;69.58;96167.01;1708765;80;21029;-65
2022/01/07 07:40:10;;;;;;;11.03;6.20;;;;;;;-3.68;69.72;96170.18;1787429;80;21016;-65
2022/01/07 07:42:38;;;;;;;8.67;3.83;;;;;;;-3.61;69.25;96163.20;1787621;80;21016;-65
2022/01/07 07:45:08;;;;;;;4.60;3.00;;;;;;;-3.58;68.27;96170.69;1787006;80;21053;-65
2022/01/07 07:47:35;;;;;;;8.23;4.33;;;;;;;-3.47;68.13;96183.17;1787785;80;21515;-65
2022/01/07 07:50:04;;;;;;;9.30;4.63;;;;;;;-3.40;67.88;96180.02;1788023;80;20970;-65
2022/01/07 07:52:31;;;;;;;8.23;4.23;;;;;;;-3.34;68.54;96182.89;1787501;80;21005;-65
2022/01/07 07:54:57;;;;;;;10.73;6.17;;;;;;;-3.29;67.84;96178.81;1787697;80;21004;-65
2022/01/07 07:57:24;;;;;;;9.83;5.73;;;;;;;-3.26;67.91;96176.36;1787781;80;21570;-65
2022/01/07 07:59:50;;;;;;;12.10;6.10;;;;;;;-3.17;67.74;96172.90;1787557;80;21038;-65
2022/01/07 08:02:17;;;;;;;11.57;7.37;;;;;;;-3.10;67.25;96177.52;1787688;80;21089;-65
2022/01/07 08:04:45;;;;;;;10.80;6.27;;;;;;;-3.07;67.30;96177.64;1787648;80;21001;-65
2022/01/07 08:07:16;;;;;;;6.63;4.17;;;;;;;-3.01;66.63;96177.01;1787625;80;21549;-65
2022/01/07 08:09:41;;;;;;;8.83;5.10;;;;;;;-2.92;66.12;96171.37;1787347;80;21513;-65
2022/01/07 08:12:50;;;;;;;11.30;5.97;;;;;;;-2.90;65.82;96168.42;1787459;80;21013;-65
2022/01/07 08:17:25;;;;;;;6.57;4.07;;;;;;;-2.77;65.99;96183.63;1788054;80;20973;-65
2022/01/07 08:19:52;;;;;;;6.47;4.13;;;;;;;-2.77;65.29;96171.09;1787506;80;21018;-65
2022/01/07 08:22:18;;;;;;;6.93;4.33;;;;;;;-2.72;65.25;96175.66;1782888;80;20985;-65
2022/01/07 08:24:48;;;;;;;9.07;4.80;;;;;;;-2.68;64.61;96172.37;1787879;80;21081;-65
2022/01/07 08:27:16;;;;;;;9.17;4.70;;;;;;;-2.68;65.40;96180.12;1787512;80;21005;-65
2022/01/07 08:29:44;;;;;;;9.50;4.90;;;;;;;-2.55;64.82;96175.05;1787634;80;20978;-65
2022/01/07 08:34:58;;;;;;;11.97;6.93;;;;;;;-2.36;64.15;96168.05;1787798;80;21085;-65
2022/01/07 08:37:28;;;;;;;14.83;7.80;;;;;;;-2.32;64.80;96166.92;1787613;80;21491;-65
2022/01/07 08:39:59;;;;;;;14.87;7.77;;;;;;;-2.21;64.71;96173.83;1787838;80;21012;-65
2022/01/07 08:42:26;;;;;;;12.20;6.37;;;;;;;-2.11;65.07;96173.38;1787939;80;20978;-65
2022/01/07 08:44:55;;;;;;;11.80;4.87;;;;;;;-2.06;63.54;96185.19;1787746;80;20998;-65
2022/01/07 08:47:25;;;;;;;5.87;3.73;;;;;;;-1.98;61.79;96185.08;1787579;80;20970;-65
2022/01/07 08:49:52;;;;;;;8.57;4.47;;;;;;;-1.96;60.83;96179.14;1787755;80;21050;-64
2022/01/07 08:52:20;;;;;;;5.57;3.03;;;;;;;-1.93;60.68;96190.02;1787769;80;20978;-64
2022/01/07 08:54:50;;;;;;;8.93;4.83;;;;;;;-1.99;58.82;96190.66;1787412;80;21535;-64
2022/01/07 08:57:19;;;;;;;9.53;5.10;;;;;;;-1.98;60.86;96183.36;1787687;80;20997;-64
2022/01/07 08:59:46;;;;;;;6.40;3.63;;;;;;;-1.93;60.72;96177.08;1787603;80;21010;-64
2022/01/07 09:02:13;;;;;;;8.10;4.70;;;;;;;-1.96;59.91;96171.80;1787386;80;21063;-65
2022/01/07 09:04:42;;;;;;;9.77;4.00;;;;;;;-1.89;60.80;96175.48;1787749;80;20998;-65
2022/01/07 09:07:08;;;;;;;7.47;4.00;;;;;;;-1.77;61.28;96171.66;1787534;80;20978;-64
2022/01/07 09:09:37;;;;;;;6.43;3.53;;;;;;;-1.71;60.18;96159.38;1787243;80;21024;-65
2022/01/07 09:12:06;;;;;;;5.57;3.30;;;;;;;-1.68;59.21;96162.08;1787695;80;21049;-64
2022/01/07 09:14:33;;;;;;;4.70;2.97;;;;;;;-1.60;60.58;96156.77;1787588;80;21009;-64
2022/01/07 09:17:01;;;;;;;4.03;2.67;;;;;;;-1.46;60.64;96156.00;1787438;80;20961;-64
2022/01/07 09:19:28;;;;;;;3.50;1.80;;;;;;;-1.39;59.54;96154.08;1787356;80;21542;-64
2022/01/07 09:21:56;;;;;;;2.33;2.00;;;;;;;-1.33;56.98;96153.44;1787563;80;21475;-64
2022/01/07 09:24:27;;;;;;;3.63;1.90;;;;;;;-1.29;57.30;96151.41;1787379;80;21025;-64
2022/01/07 09:26:54;;;;;;;2.93;1.73;;;;;;;-1.21;57.82;96151.68;1787799;80;20997;-64
2022/01/07 09:29:23;;;;;;;6.23;2.80;;;;;;;-1.17;57.36;96153.14;1787358;80;21025;-64
2022/01/07 09:31:51;;;;;;;5.33;2.60;;;;;;;-1.12;57.90;96139.94;1787593;80;20989;-64
2022/01/07 09:34:18;;;;;;;3.07;1.50;;;;;;;-1.09;56.51;96136.58;1787716;80;21076;-64
2022/01/07 09:36:45;;;;;;;2.73;1.90;;;;;;;-0.94;58.20;96138.81;1787356;80;20997;-64
2022/01/07 09:39:15;;;;;;;6.80;4.60;;;;;;;-0.84;55.70;96142.19;1787874;80;21040;-64
2022/01/07 09:41:41;;;;;;;3.43;2.03;;;;;;;-0.74;56.79;96135.19;1787753;80;20946;-64
2022/01/07 09:44:12;;;;;;;1.80;1.30;;;;;;;-0.64;57.00;96124.72;1787702;80;20997;-64
2022/01/07 09:46:41;;;;;;;2.60;1.60;;;;;;;-0.48;56.15;96128.67;1787723;80;21017;-64
2022/01/07 09:49:08;;;;;;;5.00;3.17;;;;;;;-0.36;55.27;96123.89;1787504;80;21060;-64
2022/01/07 09:51:37;;;;;;;3.63;2.60;;;;;;;-0.24;54.75;96123.41;1787620;80;20970;-65
2022/01/07 09:54:08;;;;;;;3.07;1.73;;;;;;;-0.26;55.16;96123.34;1787372;80;21017;-65
2022/01/07 09:56:36;;;;;;;4.60;2.03;;;;;;;-0.12;54.56;96116.01;1787332;80;21009;-65
2022/01/07 09:59:07;;;;;;;4.37;2.10;;;;;;;0.15;54.47;96117.27;1787712;80;21009;-65
2022/01/07 10:01:57;;;;;;;4.13;2.30;;;;;;;0.60;55.04;96114.21;1786231;80;21025;-65
2022/01/07 10:04:34;;;;;;;5.73;2.20;;;;;;;1.03;52.82;96098.52;1787329;80;21060;-64
2022/01/07 10:07:25;;;;;;;3.77;2.27;;;;;;;1.40;53.01;96094.66;1786692;80;21084;-65
2022/01/07 10:10:15;;;;;;;2.17;1.50;;;;;;;1.83;49.90;96095.26;1787514;80;20998;-64
2022/01/07 10:13:03;;;;;;;3.53;1.50;;;;;;;2.24;48.13;96078.80;1750549;82;21523;-65
2022/01/07 10:15:35;;;;;;;3.20;1.80;;;;;;;2.58;46.84;96077.35;1733823;82;21018;-65
2022/01/07 10:18:09;;;;;;;3.10;1.12;;;;;;;3.12;49.48;96071.83;1787137;80;20974;-65
2022/01/07 10:20:45;;;;;;;2.30;1.50;;;;;;;3.42;45.73;96056.27;1756106;82;21031;-64
2022/01/07 10:23:24;;;;;;;2.07;1.53;;;;;;;3.60;43.88;96060.90;1787152;80;20967;-65
2022/01/07 10:25:56;;;;;;;4.23;2.67;;;;;;;3.87;43.54;96065.23;1786958;80;21005;-66
2022/01/07 10:28:32;;;;;;;3.90;2.93;;;;;;;4.09;41.72;96053.81;1787226;80;20992;-63
2022/01/07 10:31:02;;;;;;;3.10;1.67;;;;;;;4.32;42.68;96050.19;1787084;80;21583;-64
2022/01/07 10:33:38;;;;;;;3.53;1.70;;;;;;;4.55;42.13;96047.86;1787247;80;21490;-63
2022/01/07 10:36:12;;;;;;;3.10;1.60;;;;;;;4.87;41.48;96044.31;1781856;80;21536;-63
2022/01/07 10:38:50;;;;;;;3.13;2.23;;;;;;;5.06;41.29;96047.11;1787357;80;21520;-63
2022/01/07 10:41:18;;;;;;;2.17;1.63;;;;;;;5.38;40.66;96035.20;1787276;80;21537;-64
2022/01/07 10:43:47;;;;;;;2.90;1.63;;;;;;;5.63;39.42;96025.80;1787284;80;21045;-63
2022/01/07 10:46:27;;;;;;;3.10;1.53;;;;;;;5.76;40.60;96032.00;1787128;80;20983;-63
2022/01/07 10:48:57;;;;;;;3.20;1.52;;;;;;;6.18;40.67;96028.38;1787052;80;21091;-64
2022/01/07 10:51:28;;;;;;;3.53;1.67;;;;;;;6.30;38.34;96024.52;1787232;80;21026;-64
2022/01/07 10:54:05;;;;;;;2.77;1.70;;;;;;;6.36;37.37;96020.60;1787129;80;20999;-64
2022/01/07 10:56:43;;;;;;;2.87;1.60;;;;;;;6.44;38.24;96015.39;1787266;80;20948;-63
2022/01/07 10:59:16;;;;;;;3.98;1.80;;;;;;;6.34;37.16;96018.84;1787153;80;21019;-63
2022/01/07 11:01:48;;;;;;;2.00;1.35;;;;;;;6.63;37.50;96006.73;1787214;80;21007;-63
2022/01/07 11:04:19;;;;;;;2.95;1.60;;;;;;;6.86;36.23;96004.61;1787108;80;21563;-63
2022/01/07 11:06:50;;;;;;;5.08;3.50;;;;;;;6.83;38.31;96005.48;1787212;80;21472;-63
2022/01/07 11:09:17;;;;;;;6.33;5.00;;;;;;;6.89;34.82;96009.42;1787245;80;20987;-63
2022/01/07 11:12:02;;;;;;;2.70;1.55;;;;;;;7.08;36.18;96005.51;1787306;80;20947;-63
2022/01/07 11:14:32;;;;;;;3.33;1.95;;;;;;;7.51;35.32;95998.56;1786927;80;21135;-63
2022/01/07 11:17:08;;;;;;;2.30;1.40;;;;;;;7.60;35.02;96000.30;1787074;80;21002;-63
2022/01/07 11:19:36;;;;;;;2.22;1.72;;;;;;;7.67;35.11;95996.80;1785208;80;21449;-63
2022/01/07 11:22:04;;;;;;;2.30;1.57;;;;;;;7.90;34.09;95989.32;1787068;80;21592;-63
2022/01/07 11:24:42;;;;;;;2.27;1.60;;;;;;;8.00;34.79;95998.48;1787244;80;21485;-63
2022/01/07 11:27:13;;;;;;;3.00;1.37;;;;;;;8.08;34.60;95998.47;1787317;80;20975;-63
2022/01/07 11:30:03;;;;;;;1.80;1.35;;;;;;;8.07;35.58;95991.48;1787117;80;21058;-63
2022/01/07 11:32:46;;;;;;;2.27;1.50;;;;;;;7.93;32.99;95988.00;1735746;80;20987;-63
2022/01/07 11:35:24;;;;;;;2.37;1.73;;;;;;;8.06;33.52;95988.84;1787463;80;20968;-63
2022/01/07 11:37:58;;;;;;;2.42;1.82;;;;;;;8.06;33.67;95991.02;1787371;80;21026;-63
2022/01/07 11:40:42;;;;;;;3.15;1.60;;;;;;;8.39;33.74;95990.48;1786870;80;20987;-63
2022/01/07 11:43:31;;;;;;;2.95;1.65;;;;;;;8.55;33.32;95988.72;1787065;80;21007;-63
2022/01/07 11:45:52;;;;;;;3.52;2.00;;;;;;;8.62;31.83;95993.08;1785428;80;21023;-62
2022/01/07 11:48:30;;;;;;;2.90;1.72;;;;;;;8.54;32.16;95989.58;1787258;80;20979;-62
2022/01/07 11:51:02;;;;;;;2.92;1.67;;;;;;;8.32;31.65;95982.21;1785101;80;20988;-62